createdAt,value
2023-09-06T00:00:28.392Z,70
2023-09-06T00:30:20.373Z,69
2023-09-06T01:00:22.847Z,69
2023-09-06T01:30:13.924Z,69
2023-09-06T02:00:01.982Z,70
2023-09-06T02:30:03.139Z,72
2023-09-06T03:00:17.253Z,72
2023-09-06T03:30:07.690Z,71
2023-09-06T04:00:13.338Z,71
2023-09-06T04:30:25.246Z,72
2023-09-06T05:00:26.080Z,70
2023-09-06T05:30:09.759Z,73
2023-09-06T06:00:31.042Z,72
2023-09-06T06:30:13.500Z,74
2023-09-06T07:00:11.596Z,71
2023-09-06T07:30:13.090Z,70
2023-09-06T08:00:24.747Z,70
2023-09-06T08:30:04.720Z,66
2023-09-06T09:00:09.312Z,65
2023-09-06T09:30:09.673Z,62
2023-09-06T10:00:12.572Z,59
2023-09-06T10:30:24.906Z,55
2023-09-06T11:00:27.679Z,50
2023-09-06T11:30:05.546Z,47
2023-09-06T12:00:18.531Z,39
2023-09-06T12:30:09.005Z,32
2023-09-06T13:00:02.777Z,32
2023-09-06T13:30:14.691Z,33
2023-09-06T14:00:06.717Z,35
2023-09-06T14:30:17.302Z,35
2023-09-06T15:00:00.543Z,36
2023-09-06T15:30:01.801Z,35
2023-09-06T16:00:20.513Z,32
2023-09-06T16:30:24.079Z,36
2023-09-06T17:00:13.684Z,33
2023-09-06T17:30:28.852Z,50
2023-09-06T18:00:21.083Z,52
2023-09-06T18:30:04.060Z,53
2023-09-06T19:00:06.055Z,54
2023-09-06T19:30:06.133Z,56
2023-09-06T20:00:27.407Z,57
2023-09-06T21:00:27.919Z,61
2023-09-06T21:30:19.841Z,62
2023-09-06T22:00:03.514Z,63
2023-09-06T22:30:14.784Z,64
2023-09-06T23:00:25.867Z,65
2023-09-06T23:30:09.211Z,65
